Time;durP1;ratioP1;P1;durP2;ratioP2;P2;SDS_P1;SDS_P2;PMS_P1;PMS_P2;Temp;Humidity;BMP_temperature;BMP_pressure;BME280_temperature;BME280_humidity;BME280_pressure;Samples;Min_cycle;Max_cycle;Signal;HPM_P1;HPM_P2
2023/04/12 00:01:06;;;;;;;1.43;1.27;;;8.70;86.30;;;;;;5051442;28;20176;-72
2023/04/12 00:03:33;;;;;;;1.97;1.30;;;8.70;86.30;;;;;;5052467;28;20684;-72
2023/04/12 00:06:02;;;;;;;0.90;0.90;;;8.70;86.40;;;;;;5050813;28;20648;-72
2023/04/12 00:08:33;;;;;;;1.53;1.40;;;8.70;86.60;;;;;;5052907;28;20180;-72
2023/04/12 00:11:00;;;;;;;1.93;1.77;;;8.70;86.60;;;;;;5051536;28;20556;-72
2023/04/12 00:13:25;;;;;;;2.77;1.30;;;8.70;86.60;;;;;;5049851;28;20637;-71
2023/04/12 00:15:51;;;;;;;1.23;1.23;;;8.60;86.80;;;;;;5048332;28;20179;-71
2023/04/12 00:18:17;;;;;;;1.50;1.40;;;8.60;86.90;;;;;;5056004;28;20262;-72
2023/04/12 00:20:42;;;;;;;1.47;1.37;;;8.60;86.90;;;;;;5056646;28;20265;-71
2023/04/12 00:23:12;;;;;;;1.23;1.23;;;8.60;86.90;;;;;;5052954;28;20175;-72
2023/04/12 00:25:38;;;;;;;1.40;1.23;;;8.60;86.80;;;;;;5054887;28;20214;-71
2023/04/12 00:28:04;;;;;;;1.57;1.30;;;8.60;86.90;;;;;;5054152;28;20558;-72
2023/04/12 00:30:31;;;;;;;1.63;1.57;;;8.60;86.80;;;;;;5051965;28;20236;-72
2023/04/12 00:32:57;;;;;;;1.27;1.13;;;8.60;86.80;;;;;;5050261;28;20211;-72
2023/04/12 00:35:22;;;;;;;1.70;1.47;;;8.60;86.70;;;;;;5049950;28;20188;-72
2023/04/12 00:37:49;;;;;;;3.03;1.43;;;8.60;86.80;;;;;;5056672;28;20762;-72
2023/04/12 00:40:15;;;;;;;1.57;1.43;;;8.70;86.50;;;;;;5054668;28;20172;-71
2023/04/12 00:42:40;;;;;;;1.60;1.37;;;8.70;86.30;;;;;;5050847;28;20182;-72
2023/04/12 00:45:07;;;;;;;1.83;1.20;;;8.60;86.40;;;;;;5053386;28;20195;-72
2023/04/12 00:47:36;;;;;;;1.10;1.00;;;8.70;86.30;;;;;;5052155;28;20787;-72
2023/04/12 00:50:04;;;;;;;2.50;1.47;;;8.70;86.20;;;;;;5048794;28;20233;-72
2023/04/12 00:52:33;;;;;;;1.10;1.10;;;8.70;86.20;;;;;;5051594;28;20179;-72
2023/04/12 00:55:00;;;;;;;1.37;1.13;;;8.60;86.40;;;;;;5053946;28;20223;-71
2023/04/12 00:57:26;;;;;;;1.50;1.23;;;8.60;86.40;;;;;;5057498;28;20175;-71
2023/04/12 00:59:52;;;;;;;2.83;1.40;;;8.60;86.40;;;;;;5056734;28;20176;-72
2023/04/12 01:02:18;;;;;;;1.27;1.07;;;8.70;86.50;;;;;;5052369;28;20182;-71
2023/04/12 01:04:44;;;;;;;1.90;1.53;;;8.70;86.20;;;;;;5056421;28;20247;-71
2023/04/12 01:07:31;;;;;;;1.00;1.00;;;8.70;86.10;;;;;;5049821;28;20827;-71
2023/04/12 01:10:18;;;;;;;2.87;1.57;;;8.80;86.10;;;;;;5053556;28;20487;-71
2023/04/12 01:13:08;;;;;;;1.30;1.20;;;8.70;86.10;;;;;;5053527;28;20240;-71
2023/04/12 01:15:39;;;;;;;1.43;1.37;;;8.80;86.00;;;;;;5046565;28;20171;-71
2023/04/12 01:18:15;;;;;;;2.17;1.47;;;8.70;86.00;;;;;;5049383;28;20976;-71
2023/04/12 01:21:08;;;;;;;3.10;1.93;;;8.70;86.00;;;;;;5055264;28;20178;-71
2023/04/12 01:23:46;;;;;;;1.57;1.10;;;8.70;86.00;;;;;;5051169;28;20767;-71
2023/04/12 01:26:31;;;;;;;0.77;0.77;;;8.70;86.10;;;;;;5051402;28;20191;-72
2023/04/12 01:28:59;;;;;;;1.27;1.27;;;8.70;86.00;;;;;;5051608;28;20187;-71
2023/04/12 01:31:27;;;;;;;1.53;1.33;;;8.70;86.00;;;;;;5050571;28;20186;-71
2023/04/12 01:33:55;;;;;;;1.90;1.60;;;8.70;85.90;;;;;;5055273;28;20217;-71
2023/04/12 01:36:25;;;;;;;1.53;1.37;;;8.70;86.10;;;;;;5055568;28;20195;-71
2023/04/12 01:38:51;;;;;;;1.13;1.07;;;8.60;86.50;;;;;;5052368;28;20297;-72
2023/04/12 01:41:17;;;;;;;1.80;1.67;;;8.60;86.60;;;;;;5053681;28;20653;-70
2023/04/12 01:43:44;;;;;;;3.07;1.80;;;8.60;86.60;;;;;;5054415;28;20195;-72
2023/04/12 01:46:15;;;;;;;2.73;1.10;;;8.60;86.70;;;;;;5053238;28;20676;-71
2023/04/12 01:48:48;;;;;;;1.37;1.30;;;8.60;86.70;;;;;;5049589;28;20649;-72
2023/04/12 01:51:35;;;;;;;1.90;1.77;;;8.50;86.90;;;;;;5055135;28;20728;-72
2023/04/12 01:54:11;;;;;;;2.67;1.30;;;8.50;87.00;;;;;;5048306;28;20231;-72
2023/04/12 01:56:40;;;;;;;1.13;1.13;;;8.50;87.10;;;;;;5050263;28;20216;-71
2023/04/12 01:59:07;;;;;;;1.57;1.47;;;8.40;87.10;;;;;;5056147;28;20303;-70
2023/04/12 02:01:33;;;;;;;2.60;1.20;;;8.40;87.10;;;;;;5049038;28;20189;-71
2023/04/12 02:04:01;;;;;;;1.53;1.43;;;8.50;87.10;;;;;;5049447;28;20625;-71
2023/04/12 02:06:27;;;;;;;1.77;1.10;;;8.40;87.20;;;;;;5046310;28;20565;-71
2023/04/12 02:08:58;;;;;;;1.60;1.50;;;8.40;87.40;;;;;;5053015;28;20566;-71
2023/04/12 02:11:24;;;;;;;1.63;1.53;;;8.30;87.40;;;;;;5052094;28;20179;-70
2023/04/12 02:13:50;;;;;;;1.70;1.60;;;8.30;87.40;;;;;;5049582;28;20798;-70
2023/04/12 02:16:15;;;;;;;2.10;1.33;;;8.20;87.60;;;;;;5052240;28;20202;-71
2023/04/12 02:18:41;;;;;;;2.17;2.03;;;8.20;87.60;;;;;;5051340;28;20176;-71
2023/04/12 02:21:07;;;;;;;2.50;1.53;;;8.20;87.80;;;;;;5048855;28;20191;-70
2023/04/12 02:23:33;;;;;;;1.50;1.40;;;8.20;87.80;;;;;;5058515;28;20176;-71
2023/04/12 02:25:58;;;;;;;3.43;1.83;;;8.20;87.80;;;;;;5056274;28;20644;-71
2023/04/12 02:28:24;;;;;;;1.40;1.33;;;8.20;87.90;;;;;;5048649;28;20618;-71
2023/04/12 02:30:52;;;;;;;1.83;1.73;;;8.20;88.10;;;;;;5053093;28;20179;-71
2023/04/12 02:33:20;;;;;;;2.50;1.37;;;8.20;88.00;;;;;;5055866;28;20206;-71
2023/04/12 02:35:46;;;;;;;1.83;1.63;;;8.20;88.00;;;;;;5058325;28;20180;-71
2023/04/12 02:38:12;;;;;;;1.90;1.80;;;8.20;87.90;;;;;;5054350;28;20633;-71
2023/04/12 02:40:41;;;;;;;1.43;1.43;;;8.20;87.90;;;;;;5054816;28;20241;-71
2023/04/12 02:43:07;;;;;;;1.40;1.40;;;8.20;87.90;;;;;;5054612;28;20202;-70
2023/04/12 02:45:33;;;;;;;4.03;1.93;;;8.20;87.80;;;;;;5055199;28;20182;-71
2023/04/12 02:47:59;;;;;;;1.67;1.57;;;8.20;87.90;;;;;;5053779;28;20190;-71
2023/04/12 02:50:24;;;;;;;2.57;1.90;;;8.20;87.70;;;;;;5053457;28;20176;-71
2023/04/12 02:52:50;;;;;;;3.50;1.50;;;8.20;87.80;;;;;;5051735;28;20187;-71
2023/04/12 02:55:16;;;;;;;2.47;1.83;;;8.30;87.60;;;;;;5053299;28;20700;-71
2023/04/12 02:57:44;;;;;;;2.20;1.97;;;8.40;87.40;;;;;;5052504;28;20176;-71
2023/04/12 03:00:11;;;;;;;1.93;1.63;;;8.40;87.20;;;;;;5056896;28;20688;-69
2023/04/12 03:02:37;;;;;;;2.43;1.87;;;8.40;87.30;;;;;;5050051;28;20179;-71
2023/04/12 03:05:03;;;;;;;2.30;1.33;;;8.40;87.30;;;;;;5057279;28;20622;-71
2023/04/12 03:07:29;;;;;;;2.03;1.57;;;8.40;87.30;;;;;;5046542;28;20233;-70
2023/04/12 03:09:55;;;;;;;2.87;1.83;;;8.40;87.60;;;;;;5083084;28;20184;-70
2023/04/12 03:12:21;;;;;;;2.70;1.77;;;8.40;87.90;;;;;;5059302;28;20184;-71
2023/04/12 03:14:47;;;;;;;1.97;1.87;;;8.40;88.30;;;;;;5053277;28;20230;-70
2023/04/12 03:17:12;;;;;;;1.47;1.47;;;8.50;88.40;;;;;;5052941;28;20183;-71
2023/04/12 03:19:38;;;;;;;2.27;1.97;;;8.60;88.30;;;;;;5058730;28;20191;-71
2023/04/12 03:22:05;;;;;;;2.53;1.87;;;8.60;88.30;;;;;;5054123;28;20282;-71
2023/04/12 03:24:34;;;;;;;1.80;1.70;;;8.60;88.50;;;;;;5058859;28;20578;-71
2023/04/12 03:27:04;;;;;;;2.73;2.40;;;8.60;88.60;;;;;;5054611;28;20178;-71
2023/04/12 03:29:31;;;;;;;2.60;1.90;;;8.60;88.70;;;;;;5058486;28;20178;-70
2023/04/12 03:31:58;;;;;;;3.30;2.47;;;8.60;88.90;;;;;;5051643;28;20335;-71
2023/04/12 03:34:26;;;;;;;2.67;2.47;;;8.60;89.00;;;;;;5051959;28;20272;-71
2023/04/12 03:36:54;;;;;;;6.38;2.72;;;8.70;89.10;;;;;;5051204;28;20220;-71
2023/04/12 03:39:21;;;;;;;3.47;2.70;;;8.70;89.10;;;;;;5055112;28;20270;-71
2023/04/12 03:41:46;;;;;;;3.67;2.20;;;8.70;89.00;;;;;;5054276;28;20661;-71
2023/04/12 03:44:13;;;;;;;3.30;2.73;;;8.80;88.90;;;;;;5051052;28;20191;-71
2023/04/12 03:46:38;;;;;;;3.27;2.20;;;8.80;88.70;;;;;;5055236;28;20175;-71
2023/04/12 03:49:04;;;;;;;2.00;1.90;;;8.80;88.20;;;;;;5051168;28;20176;-72
2023/04/12 03:51:30;;;;;;;2.73;2.23;;;8.80;87.90;;;;;;5053194;28;20179;-71
2023/04/12 03:53:57;;;;;;;2.50;2.30;;;8.80;87.60;;;;;;5048725;28;20616;-71
2023/04/12 03:56:23;;;;;;;3.97;2.80;;;8.80;87.40;;;;;;5053355;28;20195;-71
2023/04/12 03:58:48;;;;;;;2.83;2.63;;;8.80;87.50;;;;;;5051948;28;20192;-71
2023/04/12 04:01:16;;;;;;;3.23;2.53;;;8.80;87.50;;;;;;5057488;28;20183;-71
2023/04/12 04:03:43;;;;;;;5.20;2.40;;;8.80;87.50;;;;;;5054883;28;20184;-71
2023/04/12 04:06:10;;;;;;;4.33;2.50;;;8.80;87.70;;;;;;5054233;28;20179;-71
2023/04/12 04:08:36;;;;;;;3.33;3.03;;;8.80;87.80;;;;;;5055744;28;20708;-71
2023/04/12 04:11:02;;;;;;;2.40;2.30;;;8.80;87.80;;;;;;5057310;28;20265;-70
2023/04/12 04:13:28;;;;;;;2.90;2.70;;;8.80;87.60;;;;;;5056288;28;20226;-70
2023/04/12 04:16:03;;;;;;;2.90;2.67;;;8.80;87.60;;;;;;5053335;28;20187;-71
2023/04/12 04:18:30;;;;;;;2.77;2.53;;;8.80;87.50;;;;;;5052289;28;20175;-71
2023/04/12 04:20:55;;;;;;;4.97;2.80;;;8.80;87.50;;;;;;5054379;28;20717;-70
2023/04/12 04:23:22;;;;;;;2.90;2.67;;;8.80;87.50;;;;;;5051880;28;20275;-71
2023/04/12 04:25:48;;;;;;;4.60;2.63;;;8.80;87.40;;;;;;5051919;28;20208;-70
2023/04/12 04:28:17;;;;;;;3.67;2.53;;;8.80;87.50;;;;;;5051857;28;20211;-70
2023/04/12 04:30:44;;;;;;;4.03;2.70;;;8.80;87.60;;;;;;5053772;28;20671;-70
2023/04/12 04:33:14;;;;;;;5.18;2.97;;;8.80;87.70;;;;;;5055975;28;20754;-70
2023/04/12 04:35:42;;;;;;;4.10;2.10;;;8.70;87.60;;;;;;5056294;28;20182;-71
2023/04/12 04:38:09;;;;;;;2.43;2.30;;;8.70;87.80;;;;;;5049944;28;20279;-70
2023/04/12 04:40:37;;;;;;;3.53;2.53;;;8.70;87.80;;;;;;5050909;28;20645;-73
2023/04/12 04:43:03;;;;;;;3.50;3.20;;;8.70;87.80;;;;;;5046524;28;20620;-69
2023/04/12 04:45:31;;;;;;;3.40;2.27;;;8.70;87.50;;;;;;5038259;28;20262;-69
2023/04/12 04:47:57;;;;;;;2.17;1.97;;;8.70;87.50;;;;;;5053619;28;20179;-74
2023/04/12 04:50:25;;;;;;;7.30;2.73;;;8.70;87.60;;;;;;5051627;28;20171;-70
2023/04/12 04:52:51;;;;;;;3.00;2.20;;;8.70;87.60;;;;;;5051547;28;20175;-72
2023/04/12 04:55:17;;;;;;;3.00;1.90;;;8.70;87.40;;;;;;5049159;28;20889;-72
2023/04/12 04:57:43;;;;;;;4.63;3.23;;;8.70;87.50;;;;;;5048510;28;20618;-72
2023/04/12 05:00:10;;;;;;;4.40;3.73;;;8.70;87.40;;;;;;5047027;28;20176;-71
2023/04/12 05:02:41;;;;;;;3.10;2.88;;;8.70;87.30;;;;;;5050160;28;20179;-72
2023/04/12 05:05:14;;;;;;;3.30;2.90;;;8.70;87.10;;;;;;5050732;28;20179;-72
2023/04/12 05:07:42;;;;;;;3.07;2.57;;;8.70;86.90;;;;;;5051180;28;20727;-71
2023/04/12 05:10:09;;;;;;;4.00;3.40;;;8.70;86.50;;;;;;5054269;28;20695;-72
2023/04/12 05:12:36;;;;;;;3.27;3.03;;;8.70;86.40;;;;;;5046432;28;20236;-72
2023/04/12 05:15:02;;;;;;;2.88;2.67;;;8.70;86.20;;;;;;5046080;28;20210;-72
2023/04/12 05:17:28;;;;;;;4.63;2.40;;;8.70;85.90;;;;;;5048777;28;20591;-72
2023/04/12 05:19:54;;;;;;;2.80;2.47;;;8.70;85.40;;;;;;5053413;28;20187;-77
2023/04/12 05:22:20;;;;;;;2.27;2.13;;;8.70;85.00;;;;;;5051709;28;20728;-73
2023/04/12 05:24:47;;;;;;;2.93;2.67;;;8.80;84.90;;;;;;5054203;28;20201;-72
2023/04/12 05:27:15;;;;;;;2.43;2.20;;;8.80;84.30;;;;;;5049525;28;20171;-72
2023/04/12 05:29:44;;;;;;;2.77;2.40;;;8.80;84.10;;;;;;5049482;28;20187;-73
2023/04/12 05:32:10;;;;;;;4.47;2.87;;;8.80;83.60;;;;;;5046454;28;20213;-73
2023/04/12 05:34:36;;;;;;;2.13;2.00;;;8.80;83.20;;;;;;5044636;28;20302;-71
2023/04/12 05:37:02;;;;;;;2.40;2.13;;;8.90;83.10;;;;;;5046420;28;20270;-71
2023/04/12 05:39:29;;;;;;;2.00;1.90;;;8.90;82.70;;;;;;5050562;28;20202;-78
2023/04/12 05:41:54;;;;;;;2.00;1.85;;;9.00;82.20;;;;;;5051931;28;20248;-72
2023/04/12 05:44:20;;;;;;;1.60;1.52;;;8.90;82.10;;;;;;5050027;28;20200;-72
2023/04/12 05:46:46;;;;;;;2.05;1.92;;;9.00;81.90;;;;;;5051413;28;20199;-70
2023/04/12 05:49:12;;;;;;;2.47;2.03;;;9.00;81.70;;;;;;5048763;28;20660;-70
2023/04/12 05:51:37;;;;;;;1.83;1.55;;;9.00;81.20;;;;;;5049392;28;20294;-71
2023/04/12 05:54:05;;;;;;;1.37;1.37;;;9.00;80.60;;;;;;5056494;28;20775;-71
2023/04/12 05:56:32;;;;;;;1.23;1.13;;;9.00;80.40;;;;;;5052316;28;20205;-71
2023/04/12 05:58:59;;;;;;;4.97;1.50;;;9.00;80.10;;;;;;5054437;28;20181;-70
2023/04/12 06:01:30;;;;;;;1.63;1.53;;;9.00;80.10;;;;;;5052922;28;20638;-71
2023/04/12 06:03:59;;;;;;;2.45;2.10;;;9.00;79.80;;;;;;5055675;28;20247;-71
2023/04/12 06:06:28;;;;;;;1.90;1.80;;;9.10;79.80;;;;;;5048808;28;20588;-70
2023/04/12 06:08:59;;;;;;;2.03;1.60;;;8.90;79.60;;;;;;5052636;28;20183;-70
2023/04/12 06:11:25;;;;;;;1.50;1.50;;;8.90;79.80;;;;;;5055584;28;20259;-70
2023/04/12 06:13:51;;;;;;;1.35;1.30;;;8.80;80.20;;;;;;5054114;28;20270;-70
2023/04/12 06:16:17;;;;;;;2.50;1.95;;;8.80;80.50;;;;;;5054352;28;20207;-70
2023/04/12 06:18:42;;;;;;;1.33;1.33;;;8.70;80.90;;;;;;5057319;28;20262;-71
2023/04/12 06:21:08;;;;;;;1.73;1.50;;;8.70;81.30;;;;;;5057648;28;20176;-73
2023/04/12 06:23:34;;;;;;;2.75;1.38;;;8.70;81.60;;;;;;5054128;28;20940;-70
2023/04/12 06:25:59;;;;;;;1.77;1.05;;;8.60;81.60;;;;;;5054452;28;20187;-72
2023/04/12 06:28:25;;;;;;;2.10;1.77;;;8.60;81.90;;;;;;5055288;28;20266;-72
2023/04/12 06:30:51;;;;;;;1.70;1.60;;;8.70;81.80;;;;;;5056216;28;20237;-70
2023/04/12 06:33:16;;;;;;;2.13;1.67;;;8.70;81.60;;;;;;5053268;28;20830;-73
2023/04/12 06:35:42;;;;;;;0.85;0.85;;;8.70;81.40;;;;;;5050145;28;20167;-71
2023/04/12 06:38:08;;;;;;;1.37;1.27;;;8.80;81.00;;;;;;5056469;28;20250;-71
2023/04/12 06:40:33;;;;;;;0.95;0.95;;;8.90;80.80;;;;;;5056009;28;20199;-71
2023/04/12 06:42:59;;;;;;;0.73;0.73;;;9.00;80.00;;;;;;5055741;28;20184;-70
2023/04/12 06:45:25;;;;;;;0.93;0.93;;;9.00;79.70;;;;;;5059245;28;20194;-69
2023/04/12 06:47:50;;;;;;;2.67;1.05;;;9.10;79.90;;;;;;5056246;28;20566;-71
2023/04/12 06:50:17;;;;;;;2.95;1.20;;;9.20;79.60;;;;;;5047066;28;20837;-69
2023/04/12 06:52:43;;;;;;;0.88;0.88;;;9.20;79.60;;;;;;5052235;28;20183;-70
2023/04/12 06:55:09;;;;;;;0.77;0.77;;;9.20;79.30;;;;;;5051866;28;20294;-70
2023/04/12 06:57:34;;;;;;;1.10;1.10;;;9.10;79.30;;;;;;5057673;28;20259;-70
2023/04/12 07:00:01;;;;;;;0.80;0.80;;;9.10;79.90;;;;;;5058234;28;20266;-70
2023/04/12 07:02:27;;;;;;;0.57;0.57;;;9.10;80.00;;;;;;5052445;28;20855;-71
2023/04/12 07:04:53;;;;;;;1.42;1.33;;;9.20;79.90;;;;;;5057045;28;20269;-71
2023/04/12 07:07:21;;;;;;;0.77;0.77;;;9.40;79.50;;;;;;5056494;28;20175;-71
2023/04/12 07:09:47;;;;;;;1.85;0.90;;;9.50;79.20;;;;;;5055775;28;20547;-71
2023/04/12 07:12:13;;;;;;;0.87;0.87;;;9.60;78.80;;;;;;5054991;28;20184;-72
2023/04/12 07:14:39;;;;;;;0.95;0.95;;;9.70;78.70;;;;;;5050521;28;20239;-71
2023/04/12 07:17:05;;;;;;;0.95;0.95;;;9.90;78.30;;;;;;5057324;28;20179;-70
2023/04/12 07:19:30;;;;;;;1.00;1.00;;;10.00;77.50;;;;;;5058245;28;20222;-70
2023/04/12 07:21:56;;;;;;;0.90;0.90;;;10.20;77.10;;;;;;5045696;28;20215;-71
2023/04/12 07:24:22;;;;;;;0.95;0.95;;;10.30;76.60;;;;;;5047814;28;20180;-72
2023/04/12 07:26:48;;;;;;;1.10;1.10;;;10.40;76.20;;;;;;5049722;28;20198;-71
2023/04/12 07:29:15;;;;;;;0.88;0.88;;;10.30;76.00;;;;;;5048221;28;20714;-71
2023/04/12 07:31:41;;;;;;;1.08;1.08;;;10.10;75.60;;;;;;5055000;28;20622;-73
2023/04/12 07:34:07;;;;;;;1.08;1.08;;;10.00;75.90;;;;;;5052698;28;20238;-73
2023/04/12 07:36:32;;;;;;;0.95;0.95;;;9.90;76.70;;;;;;5049496;28;20254;-72
2023/04/12 07:38:58;;;;;;;0.75;0.75;;;9.90;76.90;;;;;;5051804;28;20652;-72
2023/04/12 07:41:24;;;;;;;1.30;1.30;;;10.00;76.50;;;;;;5042807;28;20176;-69
2023/04/12 07:43:49;;;;;;;1.00;1.00;;;9.80;76.30;;;;;;5044310;28;20192;-70
2023/04/12 07:46:15;;;;;;;0.82;0.82;;;9.80;76.60;;;;;;5045679;28;20188;-71
2023/04/12 07:48:42;;;;;;;0.98;0.98;;;10.00;76.00;;;;;;5049696;28;20183;-72
2023/04/12 07:51:08;;;;;;;0.85;0.85;;;10.00;76.30;;;;;;5044231;28;20207;-72
2023/04/12 07:53:33;;;;;;;0.75;0.75;;;10.20;75.30;;;;;;5052692;28;20211;-72
2023/04/12 07:55:59;;;;;;;0.85;0.85;;;10.30;74.40;;;;;;5051410;28;20747;-72
2023/04/12 07:58:25;;;;;;;4.25;0.88;;;10.30;73.60;;;;;;5051285;28;20699;-72
2023/04/12 08:00:52;;;;;;;0.57;0.57;;;10.40;72.10;;;;;;5051273;28;20195;-72
2023/04/12 08:03:18;;;;;;;0.85;0.85;;;10.50;71.40;;;;;;5051577;28;20189;-72
2023/04/12 08:05:44;;;;;;;0.65;0.65;;;10.70;70.90;;;;;;5052534;28;20791;-72
2023/04/12 08:08:10;;;;;;;0.80;0.77;;;10.60;70.80;;;;;;5053370;28;20190;-72
2023/04/12 08:10:39;;;;;;;1.17;1.17;;;10.70;71.00;;;;;;5056158;28;20173;-71
2023/04/12 08:13:05;;;;;;;0.68;0.68;;;10.70;70.80;;;;;;5052573;28;20184;-72
2023/04/12 08:15:31;;;;;;;0.40;0.40;;;10.60;70.00;;;;;;5049313;28;21749;-72
2023/04/12 08:17:56;;;;;;;1.40;0.57;;;10.60;68.70;;;;;;5049538;28;20228;-72
2023/04/12 08:20:23;;;;;;;0.73;0.50;;;10.60;68.90;;;;;;5052957;28;20676;-72
2023/04/12 08:22:51;;;;;;;0.80;0.80;;;10.60;68.80;;;;;;5051701;28;20187;-72
2023/04/12 08:25:16;;;;;;;0.60;0.60;;;10.60;69.00;;;;;;5049709;28;20261;-69
2023/04/12 08:27:42;;;;;;;0.63;0.63;;;10.70;68.80;;;;;;5051083;28;20183;-71
2023/04/12 08:30:09;;;;;;;0.68;0.68;;;10.80;68.60;;;;;;5055886;28;20187;-73
2023/04/12 08:32:36;;;;;;;0.85;0.77;;;10.90;67.00;;;;;;5054170;28;20707;-71
2023/04/12 08:35:02;;;;;;;0.50;0.50;;;11.20;67.20;;;;;;5052105;28;20304;-71
2023/04/12 08:37:28;;;;;;;1.67;0.52;;;11.30;66.50;;;;;;5052156;28;20180;-71
2023/04/12 08:39:54;;;;;;;0.50;0.50;;;11.40;66.20;;;;;;5049643;28;20274;-70
2023/04/12 08:42:21;;;;;;;0.80;0.80;;;11.60;65.60;;;;;;5056206;28;20281;-72
2023/04/12 08:44:47;;;;;;;0.60;0.60;;;11.90;64.30;;;;;;5048811;28;20599;-71
2023/04/12 08:47:12;;;;;;;6.13;0.73;;;12.10;64.10;;;;;;5052137;28;20179;-71
2023/04/12 08:49:38;;;;;;;0.75;0.75;;;12.10;63.50;;;;;;5050355;28;20571;-71
2023/04/12 08:52:06;;;;;;;0.93;0.93;;;12.00;63.50;;;;;;5048428;28;20176;-71
2023/04/12 08:54:33;;;;;;;0.52;0.52;;;12.30;64.00;;;;;;5050832;28;20700;-72
2023/04/12 08:57:01;;;;;;;0.90;0.70;;;12.70;62.60;;;;;;5051946;28;20324;-72
2023/04/12 08:59:28;;;;;;;0.47;0.47;;;12.90;62.40;;;;;;5052667;28;20180;-72
2023/04/12 09:01:54;;;;;;;0.52;0.52;;;13.30;61.40;;;;;;5058868;28;20180;-71
2023/04/12 09:04:20;;;;;;;0.40;0.40;;;13.60;60.90;;;;;;5053225;28;20189;-71
2023/04/12 09:06:46;;;;;;;0.70;0.70;;;13.90;60.30;;;;;;5051313;28;20184;-71
2023/04/12 09:09:11;;;;;;;0.60;0.60;;;14.00;60.20;;;;;;5047527;28;20199;-70
2023/04/12 09:11:37;;;;;;;0.50;0.50;;;14.20;60.00;;;;;;5050965;28;20186;-72
2023/04/12 09:14:03;;;;;;;0.50;0.50;;;14.10;59.40;;;;;;5055097;28;20307;-72
2023/04/12 09:16:40;;;;;;;0.52;0.52;;;13.60;60.50;;;;;;5056187;28;20177;-72
2023/04/12 09:19:06;;;;;;;0.57;0.57;;;13.40;60.40;;;;;;5042628;28;20187;-72
2023/04/12 09:21:33;;;;;;;0.43;0.43;;;13.60;61.00;;;;;;5052115;28;20170;-71
2023/04/12 09:24:12;;;;;;;0.63;0.50;;;13.50;57.40;;;;;;5051020;28;20180;-72
2023/04/12 09:26:39;;;;;;;0.50;0.47;;;13.70;58.10;;;;;;5044163;28;20270;-72
2023/04/12 09:29:05;;;;;;;2.08;0.40;;;13.90;57.70;;;;;;5045756;28;20248;-72
2023/04/12 09:31:31;;;;;;;0.50;0.50;;;13.90;57.60;;;;;;5051243;28;20571;-72
2023/04/12 09:34:07;;;;;;;0.93;0.50;;;13.70;58.10;;;;;;5044491;28;20225;-73
2023/04/12 09:36:38;;;;;;;3.20;0.63;;;13.30;58.60;;;;;;5044278;28;20195;-72
2023/04/12 09:39:04;;;;;;;2.28;0.47;;;13.10;57.60;;;;;;5041243;28;20229;-73
2023/04/12 09:41:31;;;;;;;0.50;0.50;;;13.40;57.10;;;;;;5049097;28;20186;-73
2023/04/12 09:43:58;;;;;;;0.43;0.43;;;13.90;56.20;;;;;;5047385;28;20291;-73
2023/04/12 09:46:24;;;;;;;0.65;0.43;;;13.80;56.70;;;;;;5050450;28;20187;-73
2023/04/12 09:48:55;;;;;;;0.60;0.60;;;13.80;56.70;;;;;;5051581;28;20183;-70
2023/04/12 09:51:28;;;;;;;0.65;0.52;;;13.90;56.00;;;;;;5050034;28;20238;-72
2023/04/12 09:54:01;;;;;;;0.50;0.50;;;14.30;56.50;;;;;;5040723;28;20713;-72
2023/04/12 09:56:35;;;;;;;0.57;0.57;;;15.00;55.80;;;;;;5047068;28;20251;-71
2023/04/12 09:59:03;;;;;;;0.60;0.60;;;15.60;55.80;;;;;;5047581;28;21041;-71
2023/04/12 10:01:34;;;;;;;0.45;0.45;;;15.90;54.00;;;;;;5047651;28;20171;-72
2023/04/12 10:04:00;;;;;;;2.58;0.60;;;15.40;53.00;;;;;;5047347;28;20187;-72
2023/04/12 10:06:26;;;;;;;1.67;0.40;;;15.10;52.50;;;;;;5040136;28;20232;-71
2023/04/12 10:08:53;;;;;;;0.30;0.30;;;15.50;51.40;;;;;;5042553;28;20188;-72
2023/04/12 10:11:19;;;;;;;0.30;0.30;;;16.10;48.50;;;;;;5046062;28;20214;-73
2023/04/12 10:13:48;;;;;;;0.30;0.30;;;16.60;47.30;;;;;;5050766;28;20227;-70
2023/04/12 10:16:15;;;;;;;0.20;0.20;;;17.40;45.70;;;;;;5047919;28;20186;-72
2023/04/12 10:18:42;;;;;;;1.35;0.22;;;17.70;45.80;;;;;;5049534;28;20179;-71
2023/04/12 10:21:08;;;;;;;0.20;0.20;;;18.00;45.50;;;;;;5045862;28;20267;-71
2023/04/12 10:23:34;;;;;;;0.65;0.25;;;18.10;45.70;;;;;;5050963;28;20271;-72
2023/04/12 10:26:03;;;;;;;0.60;0.30;;;18.90;45.20;;;;;;5048160;28;20854;-72
2023/04/12 10:28:29;;;;;;;0.35;0.35;;;19.40;44.30;;;;;;5051615;28;20209;-73
2023/04/12 10:30:58;;;;;;;0.40;0.40;;;19.70;43.40;;;;;;5047552;28;20186;-73
2023/04/12 10:33:29;;;;;;;0.22;0.22;;;19.20;44.10;;;;;;5049299;28;20289;-73
2023/04/12 10:36:01;;;;;;;0.30;0.30;;;19.00;44.80;;;;;;5051107;28;20248;-73
2023/04/12 10:38:30;;;;;;;0.40;0.30;;;19.50;45.00;;;;;;5047778;28;20259;-73
2023/04/12 10:41:20;;;;;;;0.20;0.20;;;20.00;44.60;;;;;;5053265;28;20233;-74
2023/04/12 10:43:50;;;;;;;0.60;0.30;;;20.80;43.90;;;;;;5047444;28;20195;-74
2023/04/12 10:46:37;;;;;;;0.20;0.20;;;21.50;42.10;;;;;;5051388;28;20225;-74
2023/04/12 10:49:13;;;;;;;0.30;0.30;;;22.00;40.80;;;;;;5053545;28;20597;-76
2023/04/12 10:51:39;;;;;;;0.30;0.30;;;21.30;40.60;;;;;;5051980;28;20274;-75
2023/04/12 10:54:14;;;;;;;0.20;0.20;;;21.00;40.60;;;;;;5055256;28;20237;-76
2023/04/12 10:56:41;;;;;;;0.20;0.20;;;21.30;40.60;;;;;;5054251;28;21005;-75
2023/04/12 10:59:08;;;;;;;0.20;0.20;;;21.70;39.90;;;;;;5054557;28;20180;-75
2023/04/12 11:01:35;;;;;;;0.30;0.30;;;22.10;40.90;;;;;;5056649;28;20186;-74
2023/04/12 11:04:08;;;;;;;0.30;0.30;;;22.70;41.00;;;;;;5055173;28;20217;-75
2023/04/12 11:06:52;;;;;;;0.32;0.30;;;23.00;37.90;;;;;;5050762;28;20194;-75
2023/04/12 11:09:24;;;;;;;0.30;0.30;;;23.20;38.80;;;;;;5052210;28;20210;-75
2023/04/12 11:11:51;;;;;;;0.50;0.28;;;22.90;37.30;;;;;;5089044;28;20737;-75
2023/04/12 11:14:23;;;;;;;0.30;0.30;;;22.20;38.40;;;;;;5052097;28;20215;-75
2023/04/12 11:17:07;;;;;;;2.15;0.20;;;21.40;38.60;;;;;;5057213;28;20183;-76
2023/04/12 11:19:37;;;;;;;0.30;0.20;;;20.80;40.00;;;;;;5055592;28;20171;-75
2023/04/12 11:22:05;;;;;;;0.30;0.30;;;20.40;39.90;;;;;;5056288;28;20207;-75
2023/04/12 11:24:30;;;;;;;0.20;0.20;;;20.60;40.00;;;;;;5052235;28;20194;-75
2023/04/12 11:26:58;;;;;;;0.20;0.20;;;20.70;40.30;;;;;;5050452;28;20184;-75
2023/04/12 11:29:26;;;;;;;0.20;0.20;;;20.70;40.70;;;;;;5054147;28;20187;-75
2023/04/12 11:31:54;;;;;;;0.50;0.22;;;20.80;39.50;;;;;;5053297;28;20183;-75
2023/04/12 11:34:21;;;;;;;0.35;0.25;;;20.60;39.90;;;;;;5052379;28;20267;-74
2023/04/12 11:36:50;;;;;;;0.20;0.20;;;19.80;40.20;;;;;;5052442;28;20234;-75
2023/04/12 11:39:17;;;;;;;0.20;0.20;;;19.60;41.40;;;;;;5056168;28;20631;-76
2023/04/12 11:41:47;;;;;;;0.30;0.30;;;19.70;40.30;;;;;;5051974;28;20243;-75
2023/04/12 11:44:13;;;;;;;2.17;0.52;;;19.40;40.50;;;;;;5056210;28;20210;-75
2023/04/12 11:46:40;;;;;;;0.35;0.35;;;19.90;40.50;;;;;;5050129;28;20179;-74
2023/04/12 11:49:06;;;;;;;0.30;0.30;;;20.40;41.20;;;;;;5052595;28;20202;-75
2023/04/12 11:51:32;;;;;;;0.20;0.20;;;20.40;39.60;;;;;;5054194;28;20175;-75
2023/04/12 11:53:58;;;;;;;0.30;0.20;;;19.70;40.50;;;;;;5049474;28;20211;-75
2023/04/12 11:56:25;;;;;;;0.20;0.20;;;19.30;40.80;;;;;;5051575;28;20188;-74
2023/04/12 11:58:50;;;;;;;0.20;0.20;;;19.30;42.00;;;;;;5049017;28;20657;-73
2023/04/12 12:01:20;;;;;;;0.47;0.20;;;19.90;41.50;;;;;;5053382;28;20183;-74
2023/04/12 12:03:47;;;;;;;0.20;0.20;;;20.60;40.90;;;;;;5054783;28;20179;-74
2023/04/12 12:06:15;;;;;;;0.20;0.20;;;21.30;40.80;;;;;;5052128;28;20192;-74
2023/04/12 12:08:40;;;;;;;0.20;0.20;;;21.90;40.10;;;;;;5055448;28;20233;-75
2023/04/12 12:11:07;;;;;;;0.25;0.25;;;22.00;39.70;;;;;;5057107;28;20182;-75
2023/04/12 12:13:49;;;;;;;0.20;0.20;;;21.60;39.90;;;;;;5052853;28;20204;-74
2023/04/12 12:16:17;;;;;;;0.75;0.20;;;20.90;40.00;;;;;;5050001;28;20202;-75
2023/04/12 12:18:44;;;;;;;0.77;0.30;;;20.60;40.60;;;;;;5056860;28;20179;-75
2023/04/12 12:21:14;;;;;;;0.20;0.20;;;20.30;40.70;;;;;;5045337;28;20203;-74
2023/04/12 12:23:44;;;;;;;0.30;0.30;;;20.00;41.30;;;;;;5050037;28;20198;-75
2023/04/12 12:26:22;;;;;;;0.30;0.30;;;20.30;41.40;;;;;;5049059;28;20555;-73
2023/04/12 12:28:52;;;;;;;0.20;0.20;;;20.70;41.30;;;;;;5046913;28;20524;-72
2023/04/12 12:31:20;;;;;;;0.20;0.20;;;20.90;41.20;;;;;;5050688;28;20191;-71
2023/04/12 12:33:46;;;;;;;1.77;0.30;;;20.60;40.60;;;;;;5036992;28;20707;-70
2023/04/12 12:36:13;;;;;;;0.15;0.15;;;20.00;41.40;;;;;;5052234;28;20178;-71
2023/04/12 12:38:40;;;;;;;0.20;0.20;;;20.40;41.20;;;;;;5054399;28;20182;-71
2023/04/12 12:41:21;;;;;;;0.30;0.30;;;20.80;41.20;;;;;;5052858;28;20183;-71
2023/04/12 12:43:48;;;;;;;0.73;0.30;;;20.80;40.80;;;;;;5051900;28;20226;-72
2023/04/12 12:46:14;;;;;;;0.47;0.20;;;20.60;41.10;;;;;;5054486;28;20186;-71
2023/04/12 12:48:40;;;;;;;0.20;0.20;;;20.80;41.80;;;;;;5052766;28;20229;-71
2023/04/12 12:51:08;;;;;;;0.20;0.20;;;20.90;40.90;;;;;;5054355;28;20179;-72
2023/04/12 12:53:35;;;;;;;0.25;0.25;;;21.00;40.30;;;;;;5051670;28;20637;-72
2023/04/12 12:56:01;;;;;;;0.10;0.10;;;20.90;40.10;;;;;;5053486;28;20187;-72